Aérodrome :
LOGIN :

S'inscrire | Disclaimer

   EN    FR    IT 

 










Légende :    VFR   VFR Marginal   IFR   IFR Intensif   IFR Très Intensif
Visi : 
Plafond : 
>= 8 km
>= 3000ft
5 à 8 km
1000 à 3000 ft
1500m à 5 km
500 à 1000 ft
800 à 1500m
200 à 500 ft
< 800m
< 200 ft
Symboles :   Orages  Brouillard  Fortes neiges  Fortes précipitations  Vent > 20 kt
SIGMETs :   Divers  Orages  Givrage  Turbulence  Onde Orograph.  Cendres Volcan.







- Altitude de l'aérodrome : 779 ft
- Code IATA : CMF
- Voir les cartes d'approche


LFLB - Chambery / Aix-Les-Bains

DERNIER METAR :
  • 210430Z AUTO 29001KT 4200 BR SCT041 OVC048 12/11 Q1014 TEMPO BKN011

METARs EXPIRÉS :
  • 210400Z AUTO 00000KT 5000 BR FEW030 BKN038 OVC045 12/12 Q1014 TEMPO BKN011
  • 210330Z AUTO 00000KT 6000 FEW027 OVC043 12/12 Q1014 TEMPO 3000 BR BKN011
  • 210300Z AUTO VRB02KT 4800 -RA BR SCT032 BKN040 OVC050 12/12 Q1013 TEMPO BKN011
  • 210230Z AUTO VRB02KT 5000 BR FEW008 BKN030 OVC037 12/12 Q1013 TEMPO BKN011
  • 210200Z AUTO VRB01KT 5000 BR FEW009 BKN029 BKN038 12/12 Q1013 TEMPO BKN011
  • 210130Z AUTO 00000KT 6000 BKN028 BKN035 OVC042 12/12 Q1013 TEMPO 3000 BR BKN011

TAF TAF LFLB
Valide du 21 à 00h jusqu'au 22 à 00h UTC


202300Z 2100/2124 VRB01KT 7000 SCT020 BKN040
PROB30
TEMPO 2100/2102 4000 -SHRA BR BKN014
PROB40
TEMPO 2102/2108 3000 BR BKN011
BECMG 2108/2110 34011KT
Pas de NOTAMs connus pour ce terrain.
1 SIGMET publié pour la FIR Marseille (LFMM) :
 
Onde orographique forte
LFMM SIGMET 1 VALID 210400/210800 LFPW
LFMM MARSEILLE FIR/UIR SEV MTW FCST E OF E00900 SFC/FL100 STNR NC=



MET'MAP, la Météo Aéronautique d'un coup d'oeil ! - Copyright ORBIFLY Décembre 2007 - Disclaimer

ORBIFLY MET'MAP TEAM :

Programmation & Développement : Alexandra Zaïnal
Conception & Développement : Baudouin d'Aumeries
Co-Programmation & Développement : Marc-Olivier Méhu
Soutien technique & logistique : Manuel Goepfert

Contact : metmap@orbifly.com




SOURCES & CREDITS :

   NOAA